Resums METAR propers

 

LEGE - Gerona/Costa Bra, Spain
DistÓncia des de l'estaciˇ: S 12km
Actualitzaciˇ: 10/08/2022 13:30
Alguns n˙vols
Alguns n˙vols
 Vent del SSE
Vent: SSE 7 km/h
Temperatura: 97°F , 36°C
Rosada: 52°F , 11°C
Humitat: 22%
Bar˛metre: 1016 hPa
Nuvolositat: Alguns n˙vols
Visibilitat: 10 km
Detalls nuvolositat: Alguns n˙vols 6000 ft
2022/08/10 11:30 LEGE 101130Z 16004KT 090V210 9999 FEW060 36/11 Q1016
Registre actualizat.